createdAt,value
2023-02-21T00:00:32.448Z,73.23
2023-02-21T00:03:17.300Z,72.27
2023-02-21T00:06:02.428Z,72.91
2023-02-21T00:08:47.634Z,73.06
2023-02-21T00:11:32.585Z,72.50
2023-02-21T00:14:17.447Z,72.49
2023-02-21T00:17:02.392Z,72.95
2023-02-21T00:19:47.193Z,73.05
2023-02-21T00:22:32.091Z,72.48
2023-02-21T00:25:16.875Z,72.23
2023-02-21T00:28:01.708Z,72.65
2023-02-21T00:30:46.729Z,72.60
2023-02-21T00:33:32.045Z,72.60
2023-02-21T00:36:17.175Z,72.61
2023-02-21T00:39:02.038Z,72.62
2023-02-21T00:41:46.908Z,73.35
2023-02-21T00:44:32.493Z,72.78
2023-02-21T00:47:17.293Z,72.67
2023-02-21T00:50:02.323Z,73.19
2023-02-21T00:52:47.152Z,73.29
2023-02-21T00:55:32.655Z,72.72
2023-02-21T00:58:17.499Z,73.18
2023-02-21T01:01:02.470Z,73.07
2023-02-21T01:03:47.244Z,73.18
2023-02-21T01:06:32.187Z,73.39
2023-02-21T01:09:16.987Z,73.10
2023-02-21T01:12:01.889Z,73.19
2023-02-21T01:14:46.879Z,73.08
2023-02-21T01:17:31.644Z,73.55
2023-02-21T01:20:18.677Z,73.49
2023-02-21T01:23:04.587Z,73.10
2023-02-21T01:25:49.526Z,73.11
2023-02-21T01:28:34.430Z,73.04
2023-02-21T01:31:19.304Z,73.52
2023-02-21T01:34:04.558Z,73.40
2023-02-21T01:36:49.416Z,73.54
2023-02-21T01:39:34.439Z,73.11
2023-02-21T01:42:19.808Z,73.24
2023-02-21T01:45:06.357Z,72.87
2023-02-21T01:47:51.805Z,73.28
2023-02-21T01:50:39.555Z,73.14
2023-02-21T01:53:30.058Z,73.25
2023-02-21T01:56:15.931Z,73.19
2023-02-21T01:59:01.467Z,73.09
2023-02-21T02:01:51.540Z,73.35
2023-02-21T02:04:36.931Z,73.38
2023-02-21T02:07:22.180Z,73.41
2023-02-21T02:10:07.016Z,73.17
2023-02-21T02:12:46.030Z,73.58
2023-02-21T02:15:18.306Z,73.84
2023-02-21T02:17:47.809Z,73.91
2023-02-21T02:20:17.245Z,73.69
2023-02-21T02:22:58.616Z,73.98
2023-02-21T02:25:27.982Z,73.67
2023-02-21T02:28:00.618Z,74.46
2023-02-21T02:31:05.639Z,73.63
2023-02-21T02:33:50.854Z,74.08
2023-02-21T02:36:29.159Z,74.44
2023-02-21T02:38:55.575Z,75.02
2023-02-21T02:41:36.952Z,74.68
2023-02-21T02:44:20.605Z,74.80
2023-02-21T02:46:49.052Z,74.41
2023-02-21T02:49:27.924Z,74.57
2023-02-21T02:51:54.888Z,75.28
2023-02-21T02:54:21.642Z,75.45
2023-02-21T02:56:48.562Z,75.43
2023-02-21T02:59:21.654Z,75.58
2023-02-21T03:01:54.491Z,75.73
2023-02-21T03:04:23.795Z,76.22
2023-02-21T03:06:53.245Z,76.20
2023-02-21T03:09:25.474Z,75.96
2023-02-21T03:11:59.909Z,76.41
2023-02-21T03:14:30.107Z,76.76
2023-02-21T03:17:01.204Z,76.99
2023-02-21T03:19:35.656Z,77.03
2023-02-21T03:22:04.494Z,77.57
2023-02-21T03:24:31.481Z,77.18
2023-02-21T03:27:02.184Z,77.54
2023-02-21T03:29:28.919Z,77.94
2023-02-21T03:31:58.204Z,77.85
2023-02-21T03:34:24.729Z,78.00
2023-02-21T03:36:51.203Z,78.04
2023-02-21T03:39:17.680Z,78.42
2023-02-21T03:41:44.126Z,78.31
2023-02-21T03:44:10.556Z,78.24
2023-02-21T03:46:38.240Z,78.54
2023-02-21T03:49:06.286Z,78.16
2023-02-21T03:51:32.720Z,78.75
2023-02-21T03:53:59.206Z,78.48
2023-02-21T03:56:33.416Z,78.57
2023-02-21T03:59:06.913Z,78.36
2023-02-21T04:01:33.488Z,79.18
2023-02-21T04:03:59.925Z,79.18
2023-02-21T04:06:26.347Z,79.12
2023-02-21T04:08:52.788Z,78.57
2023-02-21T04:11:20.751Z,79.19
2023-02-21T04:13:47.184Z,78.64
2023-02-21T04:16:13.657Z,79.00
2023-02-21T04:18:40.128Z,79.74
2023-02-21T04:21:06.579Z,79.59
2023-02-21T04:23:33.009Z,79.54
2023-02-21T04:25:59.490Z,79.51
2023-02-21T04:28:25.927Z,80.03
2023-02-21T04:30:52.369Z,79.38
2023-02-21T04:33:18.795Z,79.33
2023-02-21T04:35:45.223Z,79.21
2023-02-21T04:38:11.647Z,79.73
2023-02-21T04:40:38.113Z,80.14
2023-02-21T04:43:04.557Z,79.58
2023-02-21T04:45:31.005Z,80.22
2023-02-21T04:47:57.509Z,80.58
2023-02-21T04:50:24.017Z,80.06
2023-02-21T04:52:50.439Z,79.89
2023-02-21T04:55:16.881Z,79.85
2023-02-21T04:57:43.370Z,79.69
2023-02-21T05:00:10.902Z,79.58
2023-02-21T05:02:37.429Z,79.53
2023-02-21T05:05:03.905Z,79.17
2023-02-21T05:07:30.334Z,79.56
2023-02-21T05:09:56.753Z,79.31
2023-02-21T05:12:23.249Z,79.10
2023-02-21T05:14:50.195Z,79.77
2023-02-21T05:17:16.740Z,79.65
2023-02-21T05:19:43.238Z,79.88
2023-02-21T05:22:09.658Z,79.89
2023-02-21T05:24:42.543Z,79.85
2023-02-21T05:27:11.488Z,79.52
2023-02-21T05:29:37.961Z,80.05
2023-02-21T05:32:04.413Z,79.88
2023-02-21T05:34:30.888Z,79.77
2023-02-21T05:36:57.360Z,79.23
2023-02-21T05:39:23.826Z,79.52
2023-02-21T05:41:50.670Z,79.67
2023-02-21T05:44:17.720Z,79.89
2023-02-21T05:46:45.932Z,79.84
2023-02-21T05:49:12.608Z,80.19
2023-02-21T05:51:40.602Z,79.85
2023-02-21T05:54:08.048Z,80.97
2023-02-21T05:56:38.507Z,80.99
2023-02-21T05:59:05.200Z,80.83
2023-02-21T06:01:31.612Z,81.14
2023-02-21T06:03:58.049Z,80.72
2023-02-21T06:06:24.477Z,80.99
2023-02-21T06:08:50.992Z,80.71
2023-02-21T06:11:22.828Z,81.38
2023-02-21T06:13:52.564Z,81.09
2023-02-21T06:16:18.998Z,81.40
2023-02-21T06:18:45.480Z,81.34
2023-02-21T06:21:11.968Z,81.66
2023-02-21T06:23:38.411Z,81.71
2023-02-21T06:26:04.910Z,81.69
2023-02-21T06:28:31.708Z,82.44
2023-02-21T06:30:58.200Z,81.61
2023-02-21T06:33:24.792Z,81.41
2023-02-21T06:35:51.225Z,81.89
2023-02-21T06:38:17.696Z,81.57
2023-02-21T06:40:44.974Z,82.21
2023-02-21T06:43:11.488Z,82.15
2023-02-21T06:45:38.020Z,82.21
2023-02-21T06:48:04.630Z,82.09
2023-02-21T06:50:31.445Z,81.77
2023-02-21T06:52:57.958Z,81.92
2023-02-21T06:55:25.723Z,82.15
2023-02-21T06:57:52.693Z,82.80
2023-02-21T07:00:19.221Z,82.38
2023-02-21T07:02:45.677Z,83.11
2023-02-21T07:05:12.169Z,83.45
2023-02-21T07:07:38.777Z,83.91
2023-02-21T07:10:05.468Z,84.32
2023-02-21T07:12:31.908Z,84.45
2023-02-21T07:14:58.348Z,84.52
2023-02-21T07:17:24.767Z,84.33
2023-02-21T07:19:51.198Z,84.04
2023-02-21T07:22:25.972Z,84.26
2023-02-21T07:24:53.684Z,84.35
2023-02-21T07:27:20.359Z,84.36
2023-02-21T07:29:50.222Z,84.62
2023-02-21T07:32:17.175Z,85.09
2023-02-21T07:34:44.158Z,85.10
2023-02-21T07:37:10.893Z,84.84
2023-02-21T07:39:37.986Z,84.64
2023-02-21T07:42:05.175Z,85.27
2023-02-21T07:44:31.667Z,85.80
2023-02-21T07:46:58.363Z,85.42
2023-02-21T07:49:24.825Z,85.74
2023-02-21T07:51:51.516Z,85.94
2023-02-21T07:54:18.340Z,87.50
2023-02-21T07:56:45.522Z,87.47
2023-02-21T07:59:11.927Z,88.09
2023-02-21T08:01:38.887Z,89.85
2023-02-21T08:04:05.353Z,89.11
2023-02-21T08:06:31.890Z,89.47
2023-02-21T08:08:58.313Z,90.10
2023-02-21T08:11:24.738Z,89.50
2023-02-21T08:13:51.170Z,89.15
2023-02-21T08:16:17.648Z,89.88
2023-02-21T08:18:46.950Z,89.15
2023-02-21T08:21:13.707Z,89.75
2023-02-21T08:23:40.242Z,91.38
2023-02-21T08:26:06.922Z,92.15
2023-02-21T08:28:33.393Z,92.81
2023-02-21T08:30:59.881Z,92.75
2023-02-21T08:33:26.324Z,93.65
2023-02-21T08:35:52.732Z,93.38
2023-02-21T08:38:19.644Z,93.08
2023-02-21T08:40:46.172Z,92.48
2023-02-21T08:43:12.614Z,92.35
2023-02-21T08:45:39.041Z,92.83
2023-02-21T08:48:05.539Z,91.99
2023-02-21T08:50:33.380Z,91.59
2023-02-21T08:52:59.844Z,91.65
2023-02-21T08:55:26.294Z,91.32
2023-02-21T08:57:53.789Z,89.99
2023-02-21T09:00:23.400Z,89.74
2023-02-21T09:02:50.518Z,89.08
2023-02-21T09:05:19.045Z,88.86
2023-02-21T09:07:48.304Z,89.12
2023-02-21T09:10:14.731Z,88.75
2023-02-21T09:12:41.219Z,89.64
2023-02-21T09:15:07.919Z,89.27
2023-02-21T09:17:34.373Z,88.68
2023-02-21T09:20:06.564Z,89.06
2023-02-21T09:22:33.622Z,88.74
2023-02-21T09:25:00.877Z,87.99
2023-02-21T09:27:36.499Z,88.03
2023-02-21T09:30:06.904Z,87.22
2023-02-21T09:32:33.565Z,87.18
2023-02-21T09:35:00.104Z,88.12
2023-02-21T09:37:26.580Z,87.76
2023-02-21T09:39:53.607Z,87.62
2023-02-21T09:42:22.243Z,87.20
2023-02-21T09:44:48.781Z,87.39
2023-02-21T09:47:28.140Z,87.73
2023-02-21T09:50:03.157Z,87.56
2023-02-21T09:52:39.678Z,86.86
2023-02-21T09:55:13.376Z,84.86
2023-02-21T09:57:39.820Z,84.09
2023-02-21T10:00:21.035Z,83.88
2023-02-21T10:02:47.527Z,83.91
2023-02-21T10:05:16.751Z,84.61
2023-02-21T10:07:52.379Z,86.09
2023-02-21T10:10:28.152Z,86.37
2023-02-21T10:13:16.736Z,88.13
2023-02-21T10:15:51.149Z,88.68
2023-02-21T10:18:23.731Z,89.92
2023-02-21T10:20:50.166Z,90.96
2023-02-21T10:23:18.346Z,91.36
2023-02-21T10:25:45.875Z,91.79
2023-02-21T10:28:30.193Z,91.00
2023-02-21T10:31:02.651Z,91.66
2023-02-21T10:33:30.222Z,92.81
2023-02-21T10:35:56.802Z,93.12
2023-02-21T10:38:26.489Z,93.10
2023-02-21T10:40:52.943Z,93.20
2023-02-21T10:43:36.878Z,93.67
2023-02-21T10:46:18.725Z,94.20
2023-02-21T10:48:46.912Z,94.33
2023-02-21T10:51:14.989Z,93.44
2023-02-21T10:53:45.918Z,91.00
2023-02-21T10:56:15.962Z,90.16
2023-02-21T10:58:47.654Z,89.94
2023-02-21T11:01:21.955Z,89.41
2023-02-21T11:03:53.516Z,89.27
2023-02-21T11:06:28.113Z,89.56
2023-02-21T11:08:54.914Z,90.22
2023-02-21T11:11:50.827Z,89.87
2023-02-21T11:14:17.274Z,89.49
2023-02-21T11:16:43.826Z,89.05
2023-02-21T11:19:13.215Z,88.54
2023-02-21T11:21:41.775Z,89.07
2023-02-21T11:24:10.864Z,88.37
2023-02-21T11:26:51.848Z,87.71
2023-02-21T11:29:21.246Z,88.13
2023-02-21T11:31:47.841Z,88.00
2023-02-21T11:34:15.673Z,88.65
2023-02-21T11:36:43.726Z,86.48
2023-02-21T11:39:19.729Z,84.93
2023-02-21T11:41:47.579Z,83.77
2023-02-21T11:44:26.028Z,83.61
2023-02-21T11:46:58.779Z,82.88
2023-02-21T11:49:43.216Z,82.82
2023-02-21T11:52:19.777Z,79.33
2023-02-21T11:54:46.201Z,79.06
2023-02-21T11:57:45.173Z,78.65
2023-02-21T12:00:26.464Z,78.90
2023-02-21T12:03:07.919Z,78.75
2023-02-21T12:05:47.843Z,76.41
2023-02-21T12:08:25.967Z,75.45
2023-02-21T12:10:55.489Z,76.16
2023-02-21T12:13:22.768Z,75.57
2023-02-21T12:15:55.048Z,73.43
2023-02-21T12:18:53.908Z,74.04
2023-02-21T12:21:38.795Z,73.18
2023-02-21T12:24:15.075Z,73.22
2023-02-21T12:26:54.384Z,72.44
2023-02-21T12:29:30.030Z,72.01
2023-02-21T12:32:14.742Z,73.02
2023-02-21T12:35:04.227Z,72.07
2023-02-21T12:37:33.467Z,71.87
2023-02-21T12:40:09.080Z,71.54
2023-02-21T12:42:54.401Z,71.98
2023-02-21T12:45:30.051Z,71.94
2023-02-21T12:48:04.203Z,72.36
2023-02-21T12:50:33.631Z,72.67
2023-02-21T12:53:10.416Z,73.24
2023-02-21T12:55:40.470Z,74.09
2023-02-21T12:58:12.924Z,76.04
2023-02-21T13:00:47.702Z,77.35
2023-02-21T13:03:31.056Z,76.26
2023-02-21T13:06:01.766Z,76.63
2023-02-21T13:08:28.153Z,76.69
2023-02-21T13:11:06.404Z,76.23
2023-02-21T13:13:33.742Z,76.13
2023-02-21T13:16:02.033Z,75.56
2023-02-21T13:18:34.567Z,74.12
2023-02-21T13:21:20.024Z,73.40
2023-02-21T13:23:59.388Z,72.05
2023-02-21T13:26:47.545Z,72.87
2023-02-21T13:29:18.759Z,71.79
2023-02-21T13:31:46.107Z,71.03
2023-02-21T13:34:14.782Z,71.04
2023-02-21T13:36:42.967Z,71.51
2023-02-21T13:39:09.434Z,72.11
2023-02-21T13:41:41.347Z,72.93
2023-02-21T13:44:10.780Z,73.10
2023-02-21T13:46:37.241Z,74.21
2023-02-21T13:49:22.540Z,73.55
2023-02-21T13:51:53.067Z,74.03
2023-02-21T13:54:23.512Z,73.17
2023-02-21T13:56:51.262Z,73.42
2023-02-21T13:59:23.939Z,72.95
2023-02-21T14:01:50.792Z,72.94
2023-02-21T14:04:36.109Z,73.31
2023-02-21T14:07:02.561Z,73.85
2023-02-21T14:09:34.907Z,73.95
2023-02-21T14:12:04.218Z,73.73
2023-02-21T14:14:32.211Z,74.17
2023-02-21T14:17:00.514Z,74.47
2023-02-21T14:19:31.626Z,73.60
2023-02-21T14:22:04.283Z,74.49
2023-02-21T14:24:36.164Z,73.65
2023-02-21T14:27:02.606Z,72.62
2023-02-21T14:29:33.942Z,72.26
2023-02-21T14:32:03.884Z,72.23
2023-02-21T14:34:48.589Z,72.03
2023-02-21T14:37:17.273Z,71.72
2023-02-21T14:39:44.983Z,71.75
2023-02-21T14:42:47.044Z,71.91
2023-02-21T14:45:18.622Z,71.67
2023-02-21T14:48:03.641Z,71.16
2023-02-21T14:50:36.112Z,70.99
2023-02-21T14:53:21.259Z,71.03
2023-02-21T14:56:00.622Z,70.86
2023-02-21T14:58:27.044Z,70.56
2023-02-21T15:01:07.596Z,70.46
2023-02-21T15:03:54.299Z,72.46
2023-02-21T15:06:22.741Z,72.35
2023-02-21T15:08:49.943Z,72.45
2023-02-21T15:11:28.911Z,73.33
2023-02-21T15:14:11.694Z,74.46
2023-02-21T15:16:40.064Z,76.14
2023-02-21T15:19:06.615Z,76.57
2023-02-21T15:21:33.061Z,77.38
2023-02-21T15:24:00.748Z,78.74
2023-02-21T15:26:30.120Z,79.24
2023-02-21T15:29:04.176Z,79.94
2023-02-21T15:31:39.392Z,80.17
2023-02-21T15:34:06.123Z,80.65
2023-02-21T15:36:33.012Z,80.24
2023-02-21T15:39:06.291Z,79.97
2023-02-21T15:41:36.220Z,79.64
2023-02-21T15:44:08.865Z,79.00
2023-02-21T15:46:49.144Z,78.75
2023-02-21T15:49:18.686Z,78.45
2023-02-21T15:51:45.248Z,78.12
2023-02-21T15:54:17.546Z,78.77
2023-02-21T15:56:44.739Z,77.87
2023-02-21T15:59:25.421Z,78.14
2023-02-21T16:02:10.306Z,78.50
2023-02-21T16:04:38.030Z,79.04
2023-02-21T16:07:05.644Z,81.14
2023-02-21T16:09:35.418Z,81.86
2023-02-21T16:12:04.931Z,83.30
2023-02-21T16:14:43.515Z,84.71
2023-02-21T16:17:09.913Z,84.56
2023-02-21T16:19:36.720Z,84.78
2023-02-21T16:22:18.202Z,84.84
2023-02-21T16:24:44.688Z,84.40
2023-02-21T16:27:13.626Z,84.72
2023-02-21T16:29:40.205Z,84.55
2023-02-21T16:32:09.718Z,84.28
2023-02-21T16:34:36.296Z,84.32
2023-02-21T16:37:07.757Z,83.57
2023-02-21T16:39:34.223Z,83.67
2023-02-21T16:42:00.746Z,82.93
2023-02-21T16:44:27.225Z,83.33
2023-02-21T16:46:54.049Z,83.83
2023-02-21T16:49:20.562Z,83.10
2023-02-21T16:51:47.477Z,83.86
2023-02-21T16:54:13.996Z,83.86
2023-02-21T16:56:42.076Z,83.49
2023-02-21T16:59:12.423Z,84.32
2023-02-21T17:01:40.256Z,83.85
2023-02-21T17:04:14.383Z,83.60
2023-02-21T17:06:40.822Z,83.78
2023-02-21T17:09:07.301Z,83.20
2023-02-21T17:11:33.723Z,82.76
2023-02-21T17:14:00.166Z,81.85
2023-02-21T17:16:26.666Z,81.99
2023-02-21T17:18:53.139Z,81.87
2023-02-21T17:21:19.590Z,81.49
2023-02-21T17:23:46.015Z,81.53
2023-02-21T17:26:13.133Z,80.55
2023-02-21T17:28:39.803Z,79.99
2023-02-21T17:31:06.348Z,80.02
2023-02-21T17:33:32.803Z,79.78
2023-02-21T17:35:59.248Z,79.94
2023-02-21T17:38:25.747Z,79.80
2023-02-21T17:40:53.497Z,80.07
2023-02-21T17:43:20.140Z,80.15
2023-02-21T17:45:46.637Z,80.31
2023-02-21T17:48:13.121Z,80.15
2023-02-21T17:50:39.562Z,80.60
2023-02-21T17:53:05.974Z,80.58
2023-02-21T17:55:33.316Z,80.50
2023-02-21T17:57:59.769Z,80.56
2023-02-21T18:00:27.459Z,80.40
2023-02-21T18:02:55.329Z,80.32
2023-02-21T18:05:22.012Z,80.75
2023-02-21T18:07:52.520Z,80.70
2023-02-21T18:10:20.076Z,80.61
2023-02-21T18:12:48.160Z,80.26
2023-02-21T18:15:16.000Z,80.56
2023-02-21T18:17:42.427Z,81.02
2023-02-21T18:20:10.011Z,80.82
2023-02-21T18:22:37.239Z,80.71
2023-02-21T18:25:04.387Z,80.87
2023-02-21T18:27:30.942Z,80.05
2023-02-21T18:29:57.470Z,80.55
2023-02-21T18:32:24.390Z,80.73
2023-02-21T18:34:51.059Z,80.50
2023-02-21T18:37:17.756Z,80.49
2023-02-21T18:39:44.208Z,80.56
2023-02-21T18:42:10.638Z,80.90
2023-02-21T18:44:37.298Z,80.20
2023-02-21T18:47:03.843Z,80.28
2023-02-21T18:49:34.087Z,79.54
2023-02-21T18:52:03.792Z,79.66
2023-02-21T18:54:30.257Z,79.71
2023-02-21T18:56:56.806Z,79.74
2023-02-21T18:59:23.238Z,79.48
2023-02-21T19:01:50.635Z,79.26
2023-02-21T19:04:17.136Z,79.40
2023-02-21T19:06:43.786Z,79.78
2023-02-21T19:09:10.538Z,81.02
2023-02-21T19:11:36.956Z,82.43
2023-02-21T19:14:05.666Z,83.35
2023-02-21T19:16:32.566Z,84.59
2023-02-21T19:18:59.658Z,83.93
2023-02-21T19:21:26.712Z,84.53
2023-02-21T19:23:53.278Z,84.03
2023-02-21T19:26:19.785Z,84.91
2023-02-21T19:28:46.516Z,85.23
2023-02-21T19:31:16.210Z,84.52
2023-02-21T19:33:43.412Z,84.38
2023-02-21T19:36:10.468Z,84.49
2023-02-21T19:38:36.949Z,85.05
2023-02-21T19:41:07.438Z,86.38
2023-02-21T19:43:34.696Z,86.97
2023-02-21T19:46:01.240Z,88.14
2023-02-21T19:48:28.050Z,88.11
2023-02-21T19:50:54.504Z,88.25
2023-02-21T19:53:21.271Z,88.33
2023-02-21T19:55:47.744Z,89.11
2023-02-21T19:58:14.254Z,88.23
2023-02-21T20:00:43.207Z,89.10
2023-02-21T20:03:10.303Z,89.02
2023-02-21T20:05:37.011Z,88.45
2023-02-21T20:08:03.630Z,89.39
2023-02-21T20:10:31.183Z,90.58
2023-02-21T20:12:57.942Z,89.59
2023-02-21T20:15:24.512Z,90.79
2023-02-21T20:17:53.424Z,90.71
2023-02-21T20:20:20.268Z,92.05
2023-02-21T20:22:46.740Z,91.86
2023-02-21T20:25:13.214Z,93.26
2023-02-21T20:27:41.781Z,93.42
2023-02-21T20:30:08.971Z,93.15
2023-02-21T20:32:35.478Z,93.51
2023-02-21T20:35:01.973Z,93.02
2023-02-21T20:37:31.293Z,92.98
2023-02-21T20:39:58.452Z,92.65
2023-02-21T20:42:25.219Z,92.99
2023-02-21T20:44:51.794Z,93.02
2023-02-21T20:47:18.283Z,92.11
2023-02-21T20:49:45.312Z,92.30
2023-02-21T20:52:12.146Z,91.61
2023-02-21T20:54:38.676Z,91.21
2023-02-21T20:57:05.263Z,91.41
2023-02-21T20:59:36.360Z,91.32
2023-02-21T21:02:03.467Z,90.64
2023-02-21T21:04:30.007Z,90.63
2023-02-21T21:06:57.467Z,90.95
2023-02-21T21:09:28.947Z,91.12
2023-02-21T21:12:00.663Z,91.37
2023-02-21T21:14:28.179Z,90.92
2023-02-21T21:16:56.778Z,91.13
2023-02-21T21:19:27.250Z,91.36
2023-02-21T21:21:54.285Z,91.65
2023-02-21T21:24:20.998Z,91.84
2023-02-21T21:26:53.147Z,91.35
2023-02-21T21:29:24.581Z,90.92
2023-02-21T21:31:52.616Z,90.81
2023-02-21T21:34:25.928Z,90.77
2023-02-21T21:36:53.423Z,91.46
2023-02-21T21:39:23.395Z,91.90
2023-02-21T21:41:50.745Z,91.89
2023-02-21T21:44:17.178Z,91.74
2023-02-21T21:46:44.491Z,91.63
2023-02-21T21:49:12.037Z,91.72
2023-02-21T21:51:38.464Z,91.99
2023-02-21T21:54:05.617Z,92.04
2023-02-21T21:56:33.798Z,92.36
2023-02-21T21:59:00.259Z,92.49
2023-02-21T22:01:26.924Z,92.61
2023-02-21T22:03:53.430Z,92.56
2023-02-21T22:06:19.836Z,92.48
2023-02-21T22:08:46.236Z,92.16
2023-02-21T22:11:12.730Z,90.62
2023-02-21T22:13:39.155Z,90.31
2023-02-21T22:16:05.835Z,88.66
2023-02-21T22:18:32.376Z,89.31
2023-02-21T22:20:59.132Z,89.37
2023-02-21T22:23:25.619Z,88.91
2023-02-21T22:25:52.430Z,87.88
2023-02-21T22:28:18.927Z,88.30
2023-02-21T22:30:46.218Z,88.90
2023-02-21T22:33:14.998Z,88.14
2023-02-21T22:35:41.580Z,87.35
2023-02-21T22:38:14.120Z,87.84
2023-02-21T22:40:40.721Z,87.95
2023-02-21T22:43:08.990Z,87.53
2023-02-21T22:45:36.211Z,87.33
2023-02-21T22:48:04.136Z,87.68
2023-02-21T22:50:36.681Z,87.89
2023-02-21T22:53:04.522Z,87.93
2023-02-21T22:55:30.957Z,88.00
2023-02-21T22:57:58.508Z,88.06
2023-02-21T23:00:35.562Z,87.91
2023-02-21T23:03:12.597Z,88.04
2023-02-21T23:05:46.969Z,88.32
2023-02-21T23:08:14.804Z,87.59
2023-02-21T23:10:41.893Z,88.21
2023-02-21T23:13:09.697Z,88.15
2023-02-21T23:15:36.214Z,88.18
2023-02-21T23:18:02.847Z,88.17
2023-02-21T23:20:29.854Z,88.40
2023-02-21T23:22:58.206Z,88.42
2023-02-21T23:25:26.388Z,88.87
2023-02-21T23:27:55.087Z,89.34
2023-02-21T23:30:22.614Z,89.27
2023-02-21T23:32:49.440Z,89.36
2023-02-21T23:35:18.825Z,89.39
2023-02-21T23:37:46.241Z,89.68
2023-02-21T23:40:16.538Z,89.70
2023-02-21T23:42:47.273Z,89.85
2023-02-21T23:45:14.224Z,89.83
2023-02-21T23:47:43.798Z,90.60
2023-02-21T23:50:17.267Z,90.61
2023-02-21T23:52:47.664Z,91.10
2023-02-21T23:55:14.933Z,91.05
2023-02-21T23:57:43.013Z,91.24
